Time;durP1;ratioP1;P1;durP2;ratioP2;P2;SDS_P1;SDS_P2;PMS_P1;PMS_P2;Temp;Humidity;BMP_temperature;BMP_pressure;BME280_temperature;BME280_humidity;BME280_pressure;Samples;Min_cycle;Max_cycle;Signal;HPM_P1;HPM_P2
2024/03/29 11:28:13;;;;;;;;;;;;;;;;;;;;;
2024/03/29 11:32:58;;;;;;;;;;;;;;;;;;;;;
2024/03/29 14:17:53;;;;;;;2.10;1.00;;;;;;;16.12;52.73;98275.73;110966;1235;106189;-72
2024/03/29 14:20:20;;;;;;;1.70;1.50;;;;;;;16.14;52.73;98286.20;108660;1234;96567;-77
2024/03/29 14:22:54;;;;;;;1.20;0.80;;;;;;;16.23;52.78;98286.73;108672;1232;97843;-73
2024/03/29 14:25:20;;;;;;;1.40;0.90;;;;;;;16.28;52.58;98286.59;108488;1238;109598;-76
2024/03/29 14:27:54;;;;;;;1.80;1.10;;;;;;;16.29;52.54;98286.04;109048;1235;97109;-78
2024/03/29 14:30:20;;;;;;;2.00;1.10;;;;;;;16.33;52.34;98280.02;111520;1231;107486;-80
2024/03/29 14:33:08;;;;;;;2.00;1.00;;;;;;;16.35;52.20;98276.07;108542;1235;96599;-80
2024/03/29 15:07:20;;;;;;;;;;;;;;;;;;;;;
2024/03/29 15:14:35;;;;;;;2.80;1.10;;;;;;;16.24;50.95;98298.66;104140;1276;98155;-79
2024/03/29 15:17:58;;;;;;;3.20;1.20;;;;;;;16.23;50.91;98293.83;101959;1294;651175;-79
2024/03/29 15:20:39;;;;;;;1.60;0.90;;;;;;;16.14;50.80;98286.77;104322;1271;95307;-79
2024/03/29 15:23:38;;;;;;;;;;;;;;;;;;;;;
2024/03/29 15:26:58;;;;;;;3.20;1.30;;;;;;;16.04;50.76;98283.69;104604;1265;108871;-80
2024/03/29 15:30:08;;;;;;;3.80;1.10;;;;;;;16.03;50.62;98291.02;105190;1257;98153;-81
2024/03/29 15:35:07;;;;;;;3.70;1.80;;;;;;;16.07;50.62;98290.42;103233;1283;638292;-79
2024/03/29 15:37:51;;;;;;;4.70;1.90;;;;;;;16.01;50.56;98301.58;105068;1266;95309;-79
2024/03/29 15:40:23;;;;;;;2.80;1.50;;;;;;;15.97;50.67;98297.17;104640;1270;96232;-80
2024/03/29 15:42:57;;;;;;;2.20;1.40;;;;;;;15.92;50.50;98301.79;104758;1268;108585;-81
2024/03/29 15:45:33;;;;;;;3.00;1.40;;;;;;;15.88;50.53;98295.23;104768;1269;95959;-79
2024/03/29 15:48:19;;;;;;;2.80;1.40;;;;;;;15.87;50.52;98293.77;104640;1268;211550;-79
2024/03/29 15:51:02;;;;;;;1.90;1.10;;;;;;;15.80;50.49;98292.86;104569;1272;95256;-79
2024/03/29 15:57:31;;;;;;;5.80;1.90;;;;;;;15.73;50.27;98295.31;105210;1258;108515;-80
2024/03/29 16:00:13;;;;;;;3.20;1.80;;;;;;;15.70;50.36;98293.53;105900;1257;95086;-80
2024/03/29 16:02:49;;;;;;;3.10;1.70;;;;;;;15.68;50.46;98292.34;106032;1253;106290;-80
2024/03/29 16:05:34;;;;;;;4.00;2.20;;;;;;;15.64;50.30;98290.05;106115;1253;96601;-81
2024/03/29 16:08:02;;;;;;;5.20;2.20;;;;;;;15.59;50.30;98283.86;105723;1255;96662;-81
2024/03/29 16:11:01;;;;;;;4.30;2.10;;;;;;;15.53;50.20;98283.20;105749;1257;109820;-80
2024/03/29 16:13:36;;;;;;;3.40;1.70;;;;;;;15.51;50.35;98290.54;106120;1253;96778;-82
2024/03/29 16:16:11;;;;;;;;;;;;;;;15.50;50.23;98289.95;105643;1252;107626;-80
2024/03/29 16:19:17;;;;;;;5.50;1.90;;;;;;;15.46;50.27;98293.04;102454;1290;636114;-79
2024/03/29 16:21:55;;;;;;;3.20;1.40;;;;;;;15.38;50.35;98290.66;105105;1270;96599;-79
2024/03/29 16:24:58;;;;;;;2.80;1.50;;;;;;;15.33;50.12;98294.02;104890;1268;96180;-81
2024/03/29 16:27:32;;;;;;;3.60;1.50;;;;;;;15.27;50.17;98288.61;105108;1262;108679;-80
2024/03/29 16:30:41;;;;;;;4.40;1.90;;;;;;;15.22;50.25;98282.56;105292;1262;96032;-81
2024/03/29 16:34:18;;;;;;;4.70;1.90;;;;;;;15.11;50.21;98288.61;101459;1260;5432672;-82
2024/03/29 16:36:46;;;;;;;5.30;2.30;;;;;;;15.03;50.13;98292.02;105226;1260;95262;-80
2024/03/29 16:39:29;;;;;;;6.00;2.00;;;;;;;14.96;50.17;98295.52;105508;1260;109014;-80
2024/03/29 16:42:12;;;;;;;4.90;2.00;;;;;;;14.91;50.13;98293.75;105237;1260;95283;-78
2024/03/29 16:44:41;;;;;;;3.80;2.00;;;;;;;14.84;50.18;98290.20;105181;1260;108649;-79
2024/03/29 16:47:27;;;;;;;4.80;2.20;;;;;;;14.74;50.15;98294.25;105373;1273;96592;-79
2024/03/29 16:50:18;;;;;;;4.80;2.20;;;;;;;14.65;50.07;98291.75;105088;1260;96577;-80
2024/03/29 16:53:10;;;;;;;6.30;2.90;;;;;;;14.61;50.26;98286.42;105024;1266;110003;-82
2024/03/29 16:55:38;;;;;;;4.80;2.10;;;;;;;14.56;50.21;98279.71;104893;1260;96681;-78
2024/03/29 16:58:17;;;;;;;7.10;2.30;;;;;;;14.51;50.15;98275.66;105089;1258;107975;-77
2024/03/29 17:00:55;;;;;;;5.80;2.20;;;;;;;14.42;50.18;98280.29;105552;1260;96569;-77
2024/03/29 17:03:29;;;;;;;4.60;2.10;;;;;;;14.34;50.15;98282.33;105214;1257;96636;-80
2024/03/29 17:06:11;;;;;;;5.00;2.20;;;;;;;14.26;50.21;98284.88;105042;1261;109948;-80
2024/03/29 17:08:57;;;;;;;5.50;2.30;;;;;;;14.22;50.17;98284.94;105049;1257;96647;-81
2024/03/29 17:11:35;;;;;;;7.30;2.70;;;;;;;14.15;50.24;98289.23;105412;1257;107162;-82
2024/03/29 17:14:15;;;;;;;6.40;2.90;;;;;;;14.07;50.28;98289.09;105651;1257;97010;-79
2024/03/29 17:16:55;;;;;;;6.00;2.50;;;;;;;13.99;50.14;98288.35;105672;1264;96633;-79
2024/03/29 17:19:23;;;;;;;4.10;1.90;;;;;;;13.90;50.33;98289.53;106204;1264;111043;-81
2024/03/29 17:21:53;;;;;;;4.90;2.30;;;;;;;13.84;50.37;98289.45;106545;1258;97275;-79
2024/03/29 17:24:21;;;;;;;5.00;2.30;;;;;;;13.80;50.32;98286.41;107574;1261;107687;-78
2024/03/29 17:26:49;;;;;;;3.60;1.80;;;;;;;13.77;50.33;98292.79;107770;1257;94840;-79
2024/03/29 17:29:18;;;;;;;7.00;2.40;;;;;;;13.71;50.39;98291.77;106174;1262;96623;-79
2024/03/29 17:31:46;;;;;;;5.60;2.50;;;;;;;13.67;50.46;98294.61;105974;1259;110015;-79
2024/03/29 17:34:33;;;;;;;7.00;2.60;;;;;;;13.61;50.37;98296.83;106425;1263;96868;-81
2024/03/29 17:37:01;;;;;;;54.80;22.70;;;;;;;13.58;50.54;98294.13;106308;1263;106335;-80
2024/03/29 17:39:31;;;;;;;97.70;33.40;;;;;;;13.55;50.45;98296.67;106262;1261;96615;-81
2024/03/29 17:42:00;;;;;;;117.40;41.20;;;;;;;13.52;50.57;98300.30;106481;1258;96646;-80
2024/03/29 17:44:33;;;;;;;74.30;22.90;;;;;;;13.47;50.61;98304.50;105954;1259;109342;-83
2024/03/29 17:47:01;;;;;;;126.40;46.30;;;;;;;13.42;50.60;98306.63;105458;1260;96743;-81
2024/03/29 17:49:29;;;;;;;80.60;31.50;;;;;;;13.37;50.58;98312.25;105819;1257;107175;-81
2024/03/29 17:51:58;;;;;;;86.50;33.40;;;;;;;13.32;50.66;98315.65;105814;1259;96706;-81
2024/03/29 17:54:26;;;;;;;62.40;22.30;;;;;;;13.26;50.72;98313.67;105745;1260;96623;-81
2024/03/29 17:56:53;;;;;;;44.20;16.20;;;;;;;13.20;50.73;98317.59;105713;1256;109939;-80
2024/03/29 17:59:21;;;;;;;31.90;10.40;;;;;;;13.15;50.82;98324.38;106271;1259;97833;-81
2024/03/29 18:01:49;;;;;;;22.60;9.40;;;;;;;13.10;50.93;98323.55;105567;1257;107744;-81
2024/03/29 18:04:17;;;;;;;18.80;6.10;;;;;;;13.06;50.85;98319.13;105763;1256;96614;-80
2024/03/29 18:06:45;;;;;;;11.60;5.10;;;;;;;13.05;50.91;98323.50;105732;1259;97818;-81
2024/03/29 18:09:13;;;;;;;10.40;3.60;;;;;;;13.04;50.97;98326.64;105886;1254;110981;-80
2024/03/29 18:11:42;;;;;;;11.60;3.40;;;;;;;13.04;50.99;98330.91;105682;1256;97897;-79
2024/03/29 18:14:10;;;;;;;10.60;4.30;;;;;;;13.02;51.17;98332.36;105662;1257;106365;-82
2024/03/29 18:16:38;;;;;;;7.90;3.90;;;;;;;12.97;51.14;98334.69;106116;1257;96570;-80
2024/03/29 18:19:07;;;;;;;7.10;3.60;;;;;;;12.93;51.26;98339.77;105718;1254;96610;-81
2024/03/29 18:21:35;;;;;;;6.30;3.10;;;;;;;12.92;51.24;98345.20;105670;1257;109544;-81
2024/03/29 18:24:04;;;;;;;7.80;3.50;;;;;;;12.91;51.30;98346.15;105916;1257;98020;-81
2024/03/29 18:26:32;;;;;;;11.40;5.00;;;;;;;12.86;51.32;98349.16;105947;1257;107300;-81
2024/03/29 18:29:00;;;;;;;7.60;3.80;;;;;;;12.84;51.36;98352.21;105679;1254;96723;-82
2024/03/29 18:31:30;;;;;;;8.90;4.20;;;;;;;12.85;51.46;98352.23;105888;1257;96554;-83
2024/03/29 18:33:59;;;;;;;11.20;4.40;;;;;;;12.86;51.42;98356.80;106496;1256;110023;-80
2024/03/29 18:48:45;;;;;;;11.50;3.20;;;;;;;12.86;51.78;98358.79;102900;1288;636117;-79
2024/03/29 18:51:13;;;;;;;8.30;2.90;;;;;;;12.82;51.88;98360.70;105686;1263;95214;-82
2024/03/29 18:53:44;;;;;;;7.50;2.90;;;;;;;12.79;51.82;98361.17;105481;1263;95319;-83
2024/03/29 18:56:12;;;;;;;5.50;2.80;;;;;;;12.76;51.98;98358.55;107724;1255;108757;-81
2024/03/29 18:58:40;;;;;;;6.80;2.50;;;;;;;12.76;51.99;98360.57;108254;1254;97530;-81
2024/03/29 19:01:09;;;;;;;4.40;2.60;;;;;;;12.74;51.98;98355.95;107672;1256;106521;-82
2024/03/29 19:03:37;;;;;;;7.90;2.80;;;;;;;12.72;52.01;98350.90;106080;1253;95239;-81
2024/03/29 19:06:05;;;;;;;4.50;2.70;;;;;;;12.70;52.10;98351.13;107796;1258;93328;-81
2024/03/29 19:08:35;;;;;;;4.90;2.20;;;;;;;12.66;52.11;98345.83;105736;1253;108629;-82
2024/03/29 19:11:03;;;;;;;6.50;2.40;;;;;;;12.65;52.15;98344.79;106949;1253;96196;-82
2024/03/29 19:13:31;;;;;;;3.90;2.10;;;;;;;12.65;52.27;98342.81;106114;1258;107915;-84
2024/03/29 19:15:59;;;;;;;6.80;2.60;;;;;;;12.63;52.30;98342.47;105979;1258;98027;-83
2024/03/29 19:18:27;;;;;;;5.30;2.20;;;;;;;12.64;52.46;98340.66;106254;1255;96614;-82
2024/03/29 19:20:55;;;;;;;5.10;2.50;;;;;;;12.63;52.43;98340.36;106803;1252;109914;-81
2024/03/29 19:23:23;;;;;;;4.80;2.30;;;;;;;12.65;52.45;98336.58;106570;1255;96673;-83
2024/03/29 19:25:51;;;;;;;4.50;2.40;;;;;;;12.65;52.57;98344.13;107947;1254;106842;-83
2024/03/29 19:28:18;;;;;;;6.30;3.10;;;;;;;12.60;52.53;98342.08;108539;1252;94486;-84
2024/03/29 19:30:51;;;;;;;5.10;2.40;;;;;;;12.58;52.56;98339.10;106395;1253;97012;-81
2024/03/29 19:33:19;;;;;;;5.10;2.80;;;;;;;12.59;52.75;98339.13;106045;1260;109914;-82
2024/03/29 19:35:47;;;;;;;7.60;3.60;;;;;;;12.63;52.65;98339.99;106037;1255;96634;-81
2024/03/29 19:38:16;;;;;;;7.30;3.10;;;;;;;12.64;52.77;98339.54;106280;1252;107391;-80
2024/03/29 19:40:44;;;;;;;6.80;3.30;;;;;;;12.66;52.87;98343.66;106784;1258;96589;-83
2024/03/29 19:43:12;;;;;;;4.80;2.30;;;;;;;12.66;52.83;98342.27;106037;1256;96757;-83
2024/03/29 19:45:40;;;;;;;5.10;2.10;;;;;;;12.70;53.02;98346.02;107334;1253;109571;-81
2024/03/29 19:48:08;;;;;;;7.60;2.70;;;;;;;12.71;52.99;98345.33;105729;1260;96563;-88
2024/03/29 19:50:41;;;;;;;5.30;2.00;;;;;;;12.70;53.10;98344.00;106546;1259;108228;-79
2024/03/29 19:54:09;;;;;;;8.60;2.60;;;;;;;12.72;53.14;98346.64;108180;1257;95069;-92
2024/03/29 19:56:42;;;;;;;4.70;2.60;;;;;;;12.72;53.13;98351.80;106405;1264;96709;-81
2024/03/29 19:59:19;;;;;;;3.50;2.10;;;;;;;12.73;53.28;98350.14;106802;1255;108955;-83
2024/03/29 20:01:47;;;;;;;4.10;2.30;;;;;;;12.73;53.34;98354.39;107378;1255;96591;-82
2024/03/29 20:04:15;;;;;;;5.00;2.20;;;;;;;12.73;53.30;98358.52;106963;1258;106864;-78
2024/03/29 20:06:47;;;;;;;6.00;2.90;;;;;;;12.72;53.34;98361.77;107156;1255;96607;-80
2024/03/29 20:09:20;;;;;;;5.40;3.00;;;;;;;12.71;53.44;98363.13;107144;1255;96597;-78
2024/03/29 20:11:53;;;;;;;6.20;2.60;;;;;;;12.70;53.56;98364.31;106187;1256;111109;-80
2024/03/29 20:14:29;;;;;;;5.90;2.40;;;;;;;12.68;53.68;98362.56;106735;1261;97455;-82
2024/03/29 20:17:23;;;;;;;7.00;2.80;;;;;;;12.69;53.61;98363.52;108450;1253;105701;-82
2024/03/29 20:20:03;;;;;;;7.70;3.50;;;;;;;12.69;53.75;98364.24;107060;1259;96531;-82
2024/03/29 20:22:48;;;;;;;9.50;3.60;;;;;;;12.68;53.81;98364.86;108286;1253;94906;-81
2024/03/29 20:25:16;;;;;;;8.70;3.90;;;;;;;12.66;53.80;98361.10;106659;1261;109997;-81
2024/03/29 20:27:45;;;;;;;7.30;3.30;;;;;;;12.65;53.88;98361.73;106828;1254;96626;-80
2024/03/29 20:30:14;;;;;;;7.30;3.90;;;;;;;12.63;53.99;98361.17;107026;1253;107638;-80
2024/03/29 20:32:55;;;;;;;6.10;3.00;;;;;;;12.61;53.85;98364.77;105660;1259;96630;-80
2024/03/29 20:35:29;;;;;;;5.10;2.80;;;;;;;12.60;54.01;98360.09;105649;1258;96800;-81
2024/03/29 20:37:57;;;;;;;5.80;2.30;;;;;;;12.61;54.17;98358.90;105572;1272;109343;-80
2024/03/29 20:40:44;;;;;;;4.90;3.00;;;;;;;12.61;54.18;98358.52;106808;1256;96677;-87
2024/03/29 20:43:26;;;;;;;7.60;2.70;;;;;;;12.60;54.21;98358.60;108281;1253;107775;-84
2024/03/29 20:46:08;;;;;;;6.00;2.90;;;;;;;12.58;54.29;98356.15;107234;1255;95204;-78
2024/03/29 20:48:36;;;;;;;7.20;2.90;;;;;;;12.56;54.30;98354.38;105946;1257;96571;-79
2024/03/29 20:51:03;;;;;;;6.50;2.60;;;;;;;12.55;54.39;98357.36;106233;1256;109529;-77
2024/03/29 20:53:31;;;;;;;5.30;2.80;;;;;;;12.54;54.49;98356.38;106424;1256;96599;-80
2024/03/29 20:56:11;;;;;;;4.60;2.40;;;;;;;12.52;54.51;98356.36;106787;1253;106312;-79
2024/03/29 20:58:43;;;;;;;10.50;3.00;;;;;;;12.49;54.48;98359.91;106936;1258;96957;-87
2024/03/29 21:01:10;;;;;;;5.80;2.90;;;;;;;12.48;54.57;98361.13;107161;1256;96610;-85
2024/03/29 21:06:25;;;;;;;6.10;3.20;;;;;;;12.48;54.75;98359.36;106125;1258;96601;-79
2024/03/29 21:08:53;;;;;;;6.10;2.70;;;;;;;12.47;54.74;98348.23;105494;1259;107325;-85
2024/03/29 21:11:22;;;;;;;7.70;3.20;;;;;;;12.47;54.69;98346.47;107114;1253;96519;-79
2024/03/29 21:13:50;;;;;;;5.40;2.30;;;;;;;12.44;54.84;98341.21;106406;1257;96629;-79
2024/03/29 21:16:18;;;;;;;5.60;2.40;;;;;;;12.45;54.93;98336.89;106728;1256;110029;-79
2024/03/29 21:18:45;;;;;;;4.90;2.40;;;;;;;12.45;54.86;98331.36;105727;1256;96709;-78
2024/03/29 21:21:13;;;;;;;6.00;2.30;;;;;;;12.43;54.90;98330.64;106496;1257;107426;-79
2024/03/29 21:23:42;;;;;;;8.90;2.70;;;;;;;12.41;54.99;98332.08;107761;1256;96638;-79
2024/03/29 21:26:10;;;;;;;7.60;2.20;;;;;;;12.40;55.01;98330.09;105623;1257;96675;-79
2024/03/29 21:28:38;;;;;;;6.90;2.50;;;;;;;12.40;55.20;98328.96;105542;1257;109966;-78
2024/03/29 21:31:05;;;;;;;8.00;2.50;;;;;;;12.40;55.18;98331.29;106971;1256;96531;-86
2024/03/29 21:33:33;;;;;;;3.90;2.00;;;;;;;12.41;55.25;98330.70;106716;1257;107501;-80
2024/03/29 21:36:10;;;;;;;5.70;2.20;;;;;;;12.38;55.16;98328.96;106183;1260;98010;-84
2024/03/29 21:38:39;;;;;;;5.40;2.40;;;;;;;12.39;55.32;98331.06;107170;1254;96665;-82
2024/03/29 21:41:34;;;;;;;6.40;2.40;;;;;;;12.39;55.30;98328.02;107249;1253;109957;-89
2024/03/29 21:44:46;;;;;;;4.00;2.00;;;;;;;12.46;55.44;98330.38;104774;1288;647912;-89
2024/03/29 21:47:13;;;;;;;5.30;2.20;;;;;;;12.42;55.55;98334.79;107319;1258;95242;-83
2024/03/29 21:49:48;;;;;;;4.60;1.90;;;;;;;12.42;55.61;98335.02;107873;1256;95188;-80
2024/03/29 21:52:30;;;;;;;7.50;2.30;;;;;;;12.41;55.63;98330.90;107349;1257;109145;-81
2024/03/29 21:54:59;;;;;;;5.30;2.00;;;;;;;12.38;55.69;98339.46;108382;1254;95301;-79
2024/03/29 21:57:30;;;;;;;3.70;1.90;;;;;;;12.36;55.68;98336.66;106066;1257;340445;-82
2024/03/29 21:59:58;;;;;;;8.90;2.30;;;;;;;12.34;55.88;98337.13;108786;1252;93474;-78
2024/03/29 22:02:28;;;;;;;4.90;2.00;;;;;;;12.33;55.85;98341.64;108717;1252;93142;-76
2024/03/29 22:05:03;;;;;;;5.20;2.50;;;;;;;12.31;55.81;98345.77;108772;1252;108140;-79
2024/03/29 22:07:40;;;;;;;5.50;2.30;;;;;;;12.29;55.96;98344.35;108832;1251;95598;-79
2024/03/29 22:10:08;;;;;;;8.50;2.70;;;;;;;12.32;56.10;98340.72;108607;1253;109248;-78
2024/03/29 22:12:43;;;;;;;4.90;1.80;;;;;;;12.33;56.06;98336.73;108795;1251;94300;-82
2024/03/29 22:15:35;;;;;;;4.70;1.90;;;;;;;12.33;56.10;98335.98;108818;1251;94513;-82
2024/03/29 22:18:20;;;;;;;5.80;1.90;;;;;;;12.32;56.29;98332.89;108859;1251;110251;-81
2024/03/29 22:20:51;;;;;;;4.70;2.20;;;;;;;12.32;56.36;98329.02;108906;1251;94307;-82
2024/03/29 22:23:40;;;;;;;2.80;1.70;;;;;;;12.31;56.40;98328.35;108790;1252;107350;-81
2024/03/29 22:26:09;;;;;;;5.10;2.10;;;;;;;12.31;56.41;98330.64;108816;1251;94425;-80
2024/03/29 22:28:35;;;;;;;4.70;2.10;;;;;;;12.30;56.42;98334.63;108746;1251;94373;-80
2024/03/29 22:31:07;;;;;;;4.50;1.90;;;;;;;12.30;56.47;98335.73;108709;1251;109878;-81
2024/03/29 22:33:34;;;;;;;3.60;1.60;;;;;;;12.29;56.47;98332.88;108492;1251;94822;-81
2024/03/29 22:36:01;;;;;;;2.60;1.60;;;;;;;12.26;56.47;98334.33;108608;1251;94752;-81
2024/03/29 22:38:31;;;;;;;3.80;2.00;;;;;;;12.22;56.62;98334.86;108427;1252;94334;-81
2024/03/29 22:40:57;;;;;;;4.10;2.00;;;;;;;12.16;56.65;98333.66;108557;1251;94697;-80
2024/03/29 22:43:25;;;;;;;6.40;2.10;;;;;;;12.12;56.67;98334.41;108612;1251;108988;-80
2024/03/29 22:48:03;;;;;;;5.90;1.80;;;;;;;12.09;56.83;98335.19;102976;1297;636062;-82
2024/03/29 22:50:31;;;;;;;7.10;2.00;;;;;;;12.01;56.83;98333.05;105546;1264;95280;-81
2024/03/29 22:52:58;;;;;;;5.80;2.40;;;;;;;11.96;56.88;98332.01;105678;1272;95074;-82
2024/03/29 22:55:26;;;;;;;5.20;1.80;;;;;;;11.89;56.92;98330.31;106366;1261;108533;-81
2024/03/29 22:57:54;;;;;;;4.80;2.20;;;;;;;11.81;56.91;98327.70;105064;1264;95491;-81
2024/03/29 23:00:22;;;;;;;3.60;1.70;;;;;;;11.73;56.97;98329.64;105115;1264;107324;-81
2024/03/29 23:02:50;;;;;;;5.40;2.10;;;;;;;11.66;57.05;98330.09;105032;1257;294998;-81
2024/03/29 23:05:21;;;;;;;3.90;1.90;;;;;;;11.60;57.22;98331.08;105941;1260;96168;-82
2024/03/29 23:07:52;;;;;;;4.60;2.00;;;;;;;11.54;57.18;98327.08;106584;1260;108569;-82
2024/03/29 23:10:20;;;;;;;4.50;1.90;;;;;;;11.48;57.22;98326.33;105903;1257;95404;-83
2024/03/29 23:12:48;;;;;;;3.30;1.90;;;;;;;11.43;57.37;98327.96;106662;1255;106221;-83
2024/03/29 23:15:18;;;;;;;4.30;1.90;;;;;;;11.41;57.43;98331.72;105441;1260;96639;-83
2024/03/29 23:17:45;;;;;;;3.80;2.10;;;;;;;11.39;57.38;98331.00;105426;1257;96607;-83
2024/03/29 23:20:13;;;;;;;5.10;2.30;;;;;;;11.37;57.49;98332.58;105575;1256;110243;-82
2024/03/29 23:22:41;;;;;;;2.90;1.50;;;;;;;11.37;57.62;98332.61;105616;1260;96584;-83
2024/03/29 23:25:09;;;;;;;4.00;1.80;;;;;;;11.33;57.64;98328.47;106734;1257;107643;-82
2024/03/29 23:27:37;;;;;;;4.70;2.10;;;;;;;11.31;57.71;98331.13;105576;1257;96827;-82
2024/03/29 23:30:05;;;;;;;3.30;1.60;;;;;;;11.30;57.71;98328.94;105478;1254;97941;-81
2024/03/29 23:32:33;;;;;;;4.50;1.80;;;;;;;11.28;57.81;98326.47;105750;1257;110044;-81
2024/03/29 23:35:01;;;;;;;5.60;2.20;;;;;;;11.26;57.82;98323.85;105826;1252;96524;-81
2024/03/29 23:37:28;;;;;;;4.80;1.60;;;;;;;11.25;58.00;98321.06;105880;1254;105755;-82
2024/03/29 23:39:56;;;;;;;6.60;2.10;;;;;;;11.27;58.15;98317.89;105733;1251;96668;-81
2024/03/29 23:42:26;;;;;;;5.30;2.00;;;;;;;11.30;58.02;98314.79;106260;1254;96421;-81
2024/03/29 23:44:54;;;;;;;4.00;1.70;;;;;;;11.33;58.06;98314.85;106178;1255;110202;-82
2024/03/29 23:47:25;;;;;;;5.80;1.90;;;;;;;11.35;58.13;98313.10;105903;1256;97161;-82
2024/03/29 23:49:54;;;;;;;6.00;1.80;;;;;;;11.37;58.24;98307.27;105533;1256;107769;-82
2024/03/29 23:52:22;;;;;;;4.10;1.80;;;;;;;11.36;58.09;98308.02;105802;1256;96614;-81
2024/03/29 23:55:00;;;;;;;4.20;1.70;;;;;;;11.30;58.35;98302.48;105583;1255;96601;-82
2024/03/29 23:57:28;;;;;;;5.20;1.60;;;;;;;11.28;58.44;98300.77;105711;1257;109724;-81
